Monday, December 18, 2017, 5:23 PM EST
Back to Local

KSWF, Newburgh / Stewart

Location: New Windsor, NY, United States Lat: 41.5
Local Time: 5:23 PM EST (22:23 GMT) Lon: -74.1
Time Zone: US/Eastern Elev: 492 ft

Show me the last for .
Show Coded

Time T Td Feel RH Dir Speed Gust Alt SLP Vis Weather Sky Remarks
2017-12-18 16:45 37 32 - 80 - Calm - 29.95 - 10 OVC080 None
2017-12-18 15:45 37 32 - 80 - Calm - 29.95 - 10 OVC070 None
2017-12-18 14:45 37 32 - 80 - Calm - 29.96 - 10 OVC060 None
2017-12-18 13:45 37 32 - 80 - Calm - 29.98 - 10 OVC060 None
2017-12-18 12:45 34 28 - 80 - Calm - 30.02 - 10 SCT010 BKN040 None
2017-12-18 11:45 32 28 - 86 - Calm - 30.06 - 10 OVC010 None
2017-12-18 10:45 32 28 26 86 320° 6 - 30.09 - 10 OVC010 None
2017-12-18 09:45 30 25 - 80 - Calm - 30.09 - 10 OVC010 None
2017-12-18 08:45 28 23 - 79 - Calm - 30.11 - 10 OVC010 None
2017-12-18 07:45 28 23 - 79 - Calm - 30.13 - 10 OVC012 None
2017-12-18 06:45 27 23 - 86 - Calm - 30.13 - 10 OVC014 None
2017-12-18 05:45 28 23 - 79 - Calm - 30.13 - 10 OVC015 None
2017-12-18 04:45 27 23 - 86 - Calm - 30.14 - 10 OVC015 None
2017-12-18 03:45 27 21 - 79 - Calm - 30.15 - 10 OVC015 None
2017-12-18 02:45 27 21 - 79 - Calm - 30.18 - 10 OVC015 None
2017-12-18 01:45 27 21 - 79 - Calm - 30.17 - 10 OVC015 None
2017-12-18 00:45 27 19 - 73 - Calm - 30.19 - 10 OVC040 None
2017-12-17 23:45 27 19 - 73 - Calm - 30.20 - 10 FEW030 OVC050 None
2017-12-17 22:45 27 19 - 73 - Calm - 30.23 - 10 FEW030 OVC055 None
2017-12-17 21:45 27 19 - 73 - Calm - 30.23 - 10 FEW030 OVC100 None
2017-12-17 20:45 27 19 - 73 - Calm - 30.25 - 10 OVC030 None
2017-12-17 19:45 27 19 - 73 - Calm - 30.26 - 10 OVC030 None
2017-12-17 18:45 28 19 - 68 - Calm - 30.25 - 10 OVC030 None
2017-12-17 17:45 28 19 22 68 Variable 6 - 30.25 - 10 OVC030 None

Support USWX by starting your Amazon purchase here.